createdAt,value
2019-04-01T00:00:26.104Z,1013.02
2019-04-01T00:01:26.084Z,1012.98
2019-04-01T00:02:26.064Z,1013.02
2019-04-01T00:03:26.044Z,1013.01
2019-04-01T00:04:26.020Z,1013.02
2019-04-01T00:05:26.007Z,1013.01
2019-04-01T00:06:25.985Z,1012.99
2019-04-01T00:07:26.002Z,1013.04
2019-04-01T00:08:25.949Z,1013.02
2019-04-01T00:09:25.926Z,1013.07
2019-04-01T00:10:25.918Z,1013.04
2019-04-01T00:11:25.894Z,1013.06
2019-04-01T00:12:25.870Z,1013.02
2019-04-01T00:13:25.882Z,1012.96
2019-04-01T00:14:25.832Z,1012.97
2019-04-01T00:15:25.815Z,1012.97
2019-04-01T00:16:25.791Z,1013.02
2019-04-01T00:17:25.777Z,1013.00
2019-04-01T00:18:25.896Z,1013.04
2019-04-01T00:19:25.735Z,1013.01
2019-04-01T00:20:25.725Z,1013.00
2019-04-01T00:21:25.706Z,1013.02
2019-04-01T00:22:25.690Z,1013.04
2019-04-01T00:23:25.671Z,1013.02
2019-04-01T00:24:25.654Z,1013.00
2019-04-01T00:25:25.628Z,1013.02
2019-04-01T00:26:25.611Z,1012.96
2019-04-01T00:27:25.591Z,1013.01
2019-04-01T00:28:25.567Z,1013.01
2019-04-01T00:29:25.577Z,1013.01
2019-04-01T00:30:25.527Z,1013.01
2019-04-01T00:31:25.517Z,1013.02
2019-04-01T00:32:25.493Z,1013.01
2019-04-01T00:33:25.468Z,1012.99
2019-04-01T00:34:25.507Z,1013.01
2019-04-01T00:35:25.433Z,1012.97
2019-04-01T00:36:25.417Z,1012.99
2019-04-01T00:37:25.396Z,1012.92
2019-04-01T00:38:25.386Z,1012.94
2019-04-01T00:39:25.359Z,1012.96
2019-04-01T00:40:25.394Z,1012.94
2019-04-01T00:41:25.314Z,1012.94
2019-04-01T00:42:25.310Z,1012.97
2019-04-01T00:43:25.286Z,1012.94
2019-04-01T00:44:25.266Z,1012.96
2019-04-01T00:45:25.239Z,1012.95
2019-04-01T00:46:25.261Z,1012.94
2019-04-01T00:47:25.213Z,1012.94
2019-04-01T00:48:25.192Z,1012.92
2019-04-01T00:49:25.169Z,1012.90
2019-04-01T00:50:25.163Z,1012.89
2019-04-01T00:51:25.129Z,1012.93
2019-04-01T00:52:25.122Z,1012.87
2019-04-01T00:53:25.091Z,1012.90
2019-04-01T00:54:25.067Z,1012.92
2019-04-01T00:55:25.083Z,1012.88
2019-04-01T00:56:25.062Z,1012.86
2019-04-01T00:57:25.023Z,1012.86
2019-04-01T00:58:25.011Z,1012.83
2019-04-01T00:59:24.980Z,1012.84
2019-04-01T01:00:25.092Z,1012.81
2019-04-01T01:01:24.938Z,1012.75
2019-04-01T01:02:24.918Z,1012.81
2019-04-01T01:03:24.903Z,1012.75
2019-04-01T01:04:24.884Z,1012.77
2019-04-01T01:05:24.861Z,1012.77
2019-04-01T01:06:24.877Z,1012.81
2019-04-01T01:07:24.828Z,1012.75
2019-04-01T01:08:24.799Z,1012.72
2019-04-01T01:09:24.793Z,1012.71
2019-04-01T01:10:24.791Z,1012.68
2019-04-01T01:11:24.747Z,1012.70
2019-04-01T01:12:24.735Z,1012.70
2019-04-01T01:13:24.705Z,1012.65
2019-04-01T01:14:24.702Z,1012.67
2019-04-01T01:15:24.673Z,1012.69
2019-04-01T01:16:24.649Z,1012.63
2019-04-01T01:17:24.633Z,1012.66
2019-04-01T01:18:24.647Z,1012.65
2019-04-01T01:19:24.589Z,1012.61
2019-04-01T01:20:24.572Z,1012.63
2019-04-01T01:21:24.587Z,1012.60
2019-04-01T01:22:24.532Z,1012.60
2019-04-01T01:23:24.548Z,1012.64
2019-04-01T01:24:24.498Z,1012.62
2019-04-01T01:25:24.476Z,1012.62
2019-04-01T01:26:24.495Z,1012.60
2019-04-01T01:27:24.443Z,1012.56
2019-04-01T01:28:24.425Z,1012.56
2019-04-01T01:29:24.438Z,1012.59
2019-04-01T01:30:24.384Z,1012.56
2019-04-01T01:31:24.363Z,1012.55
2019-04-01T01:32:24.592Z,1012.58
2019-04-01T01:33:24.325Z,1012.58
2019-04-01T01:34:24.312Z,1012.54
2019-04-01T01:35:24.282Z,1012.54
2019-04-01T01:36:24.263Z,1012.50
2019-04-01T01:37:24.256Z,1012.56
2019-04-01T01:38:24.228Z,1012.49
2019-04-01T01:39:24.238Z,1012.46
2019-04-01T01:40:24.192Z,1012.46
2019-04-01T01:41:24.170Z,1012.46
2019-04-01T01:42:24.152Z,1012.47
2019-04-01T01:43:24.136Z,1012.40
2019-04-01T01:44:24.126Z,1012.43
2019-04-01T01:45:24.130Z,1012.42
2019-04-01T01:46:24.074Z,1012.43
2019-04-01T01:47:24.051Z,1012.46
2019-04-01T01:48:24.039Z,1012.47
2019-04-01T01:49:24.021Z,1012.43
2019-04-01T01:50:24.035Z,1012.46
2019-04-01T01:51:23.978Z,1012.47
2019-04-01T01:52:23.970Z,1012.47
2019-04-01T01:53:23.938Z,1012.46
2019-04-01T01:54:23.925Z,1012.50
2019-04-01T01:55:24.055Z,1012.48
2019-04-01T01:56:23.881Z,1012.49
2019-04-01T01:57:23.859Z,1012.46
2019-04-01T01:58:23.842Z,1012.44
2019-04-01T01:59:23.824Z,1012.46
2019-04-01T02:00:23.804Z,1012.45
2019-04-01T02:01:23.821Z,1012.45
2019-04-01T02:02:24.818Z,1012.48
2019-04-01T02:03:23.747Z,1012.44
2019-04-01T02:04:23.725Z,1012.44
2019-04-01T02:05:23.739Z,1012.44
2019-04-01T02:06:23.715Z,1012.43
2019-04-01T02:07:23.733Z,1012.41
2019-04-01T02:08:23.649Z,1012.42
2019-04-01T02:09:23.637Z,1012.36
2019-04-01T02:10:23.614Z,1012.35
2019-04-01T02:11:23.595Z,1012.38
2019-04-01T02:12:23.570Z,1012.38
2019-04-01T02:13:23.587Z,1012.39
2019-04-01T02:14:23.534Z,1012.38
2019-04-01T02:15:23.509Z,1012.41
2019-04-01T02:16:23.503Z,1012.37
2019-04-01T02:17:23.503Z,1012.38
2019-04-01T02:18:23.461Z,1012.36
2019-04-01T02:19:23.438Z,1012.32
2019-04-01T02:20:23.417Z,1012.36
2019-04-01T02:21:23.433Z,1012.36
2019-04-01T02:22:23.411Z,1012.32
2019-04-01T02:23:23.360Z,1012.32
2019-04-01T02:24:23.341Z,1012.35
2019-04-01T02:25:23.329Z,1012.26
2019-04-01T02:26:23.340Z,1012.29
2019-04-01T02:27:23.296Z,1012.29
2019-04-01T02:28:23.274Z,1012.29
2019-04-01T02:29:23.250Z,1012.31
2019-04-01T02:30:23.234Z,1012.29
2019-04-01T02:31:23.234Z,1012.27
2019-04-01T02:32:23.213Z,1012.31
2019-04-01T02:33:23.171Z,1012.30
2019-04-01T02:34:23.147Z,1012.32
2019-04-01T02:35:23.138Z,1012.34
2019-04-01T02:36:23.111Z,1012.32
2019-04-01T02:37:23.109Z,1012.30
2019-04-01T02:38:23.178Z,1012.33
2019-04-01T02:39:23.066Z,1012.35
2019-04-01T02:40:23.032Z,1012.35
2019-04-01T02:41:23.014Z,1012.34
2019-04-01T02:42:23.021Z,1012.34
2019-04-01T02:43:22.972Z,1012.39
2019-04-01T02:44:22.960Z,1012.30
2019-04-01T02:45:22.940Z,1012.36
2019-04-01T02:46:22.915Z,1012.36
2019-04-01T02:47:22.929Z,1012.32
2019-04-01T02:48:22.882Z,1012.32
2019-04-01T02:49:22.854Z,1012.34
2019-04-01T02:50:22.862Z,1012.36
2019-04-01T02:51:22.815Z,1012.32
2019-04-01T02:52:22.807Z,1012.29
2019-04-01T02:53:22.807Z,1012.33
2019-04-01T02:54:22.767Z,1012.33
2019-04-01T02:55:22.746Z,1012.30
2019-04-01T02:56:22.718Z,1012.31
2019-04-01T02:57:22.700Z,1012.31
2019-04-01T02:58:22.720Z,1012.31
2019-04-01T02:59:22.673Z,1012.29
2019-04-01T03:00:22.701Z,1012.28
2019-04-01T03:01:22.620Z,1012.31
2019-04-01T03:02:22.846Z,1012.28
2019-04-01T03:03:22.581Z,1012.22
2019-04-01T03:04:22.568Z,1012.22
2019-04-01T03:05:22.546Z,1012.20
2019-04-01T03:06:22.532Z,1012.20
2019-04-01T03:07:22.544Z,1012.24
2019-04-01T03:08:22.518Z,1012.26
2019-04-01T03:09:22.471Z,1012.25
2019-04-01T03:10:22.462Z,1012.22
2019-04-01T03:11:22.427Z,1012.21
2019-04-01T03:12:22.457Z,1012.19
2019-04-01T03:13:22.427Z,1012.18
2019-04-01T03:14:22.382Z,1012.17
2019-04-01T03:15:22.389Z,1012.16
2019-04-01T03:16:22.343Z,1012.14
2019-04-01T03:17:22.326Z,1012.15
2019-04-01T03:18:22.291Z,1012.18
2019-04-01T03:19:22.281Z,1012.15
2019-04-01T03:20:22.288Z,1012.19
2019-04-01T03:21:22.238Z,1012.17
2019-04-01T03:22:22.223Z,1012.17
2019-04-01T03:23:22.194Z,1012.17
2019-04-01T03:24:22.192Z,1012.18
2019-04-01T03:25:22.191Z,1012.20
2019-04-01T03:26:22.140Z,1012.18
2019-04-01T03:27:22.151Z,1012.18
2019-04-01T03:28:22.110Z,1012.22
2019-04-01T03:29:22.079Z,1012.19
2019-04-01T03:30:22.081Z,1012.19
2019-04-01T03:31:22.043Z,1012.20
2019-04-01T03:32:22.058Z,1012.18
2019-04-01T03:33:22.006Z,1012.17
2019-04-01T03:34:21.982Z,1012.16
2019-04-01T03:35:21.998Z,1012.14
2019-04-01T03:36:21.942Z,1012.12
2019-04-01T03:37:21.961Z,1012.14
2019-04-01T03:38:21.907Z,1012.12
2019-04-01T03:39:21.886Z,1012.14
2019-04-01T03:40:21.874Z,1012.13
2019-04-01T03:41:21.906Z,1012.07
2019-04-01T03:42:21.950Z,1012.08
2019-04-01T03:43:21.811Z,1012.05
2019-04-01T03:44:21.786Z,1012.08
2019-04-01T03:45:21.772Z,1012.08
2019-04-01T03:46:21.744Z,1012.08
2019-04-01T03:47:21.767Z,1012.05
2019-04-01T03:48:21.713Z,1012.08
2019-04-01T03:49:21.695Z,1012.05
2019-04-01T03:50:21.684Z,1012.08
2019-04-01T03:51:21.657Z,1012.06
2019-04-01T03:52:21.673Z,1012.08
2019-04-01T03:53:21.649Z,1012.06
2019-04-01T03:54:21.593Z,1012.10
2019-04-01T03:55:21.611Z,1012.07
2019-04-01T03:56:21.556Z,1012.07
2019-04-01T03:57:21.542Z,1012.05
2019-04-01T03:58:21.553Z,1012.06
2019-04-01T03:59:21.514Z,1012.06
2019-04-01T04:00:21.499Z,1012.05
2019-04-01T04:01:21.461Z,1012.05
2019-04-01T04:02:21.451Z,1012.04
2019-04-01T04:03:21.419Z,1012.02
2019-04-01T04:04:21.409Z,1012.02
2019-04-01T04:05:21.410Z,1012.04
2019-04-01T04:06:21.356Z,1012.06
2019-04-01T04:07:21.340Z,1012.06
2019-04-01T04:08:21.322Z,1012.05
2019-04-01T04:09:21.309Z,1012.05
2019-04-01T04:10:21.317Z,1012.06
2019-04-01T04:11:21.258Z,1012.08
2019-04-01T04:12:21.251Z,1012.02
2019-04-01T04:13:21.251Z,1012.05
2019-04-01T04:14:21.202Z,1012.05
2019-04-01T04:15:21.217Z,1012.06
2019-04-01T04:16:21.163Z,1012.01
2019-04-01T04:17:21.142Z,1012.00
2019-04-01T04:18:21.128Z,1012.01
2019-04-01T04:19:21.114Z,1012.00
2019-04-01T04:20:21.147Z,1011.97
2019-04-01T04:21:23.932Z,1012.00
2019-04-01T04:22:21.062Z,1011.97
2019-04-01T04:23:21.031Z,1011.96
2019-04-01T04:24:21.016Z,1011.97
2019-04-01T04:25:20.985Z,1011.96
2019-04-01T04:26:21.000Z,1011.96
2019-04-01T04:27:20.947Z,1011.97
2019-04-01T04:28:20.935Z,1011.99
2019-04-01T04:29:20.918Z,1011.99
2019-04-01T04:30:20.921Z,1011.98
2019-04-01T04:31:20.870Z,1011.97
2019-04-01T04:32:20.855Z,1011.94
2019-04-01T04:33:20.838Z,1011.97
2019-04-01T04:34:20.816Z,1011.98
2019-04-01T04:35:20.827Z,1011.95
2019-04-01T04:36:20.824Z,1011.94
2019-04-01T04:37:20.766Z,1011.96
2019-04-01T04:38:20.754Z,1011.96
2019-04-01T04:39:20.711Z,1011.89
2019-04-01T04:40:20.693Z,1011.91
2019-04-01T04:41:20.679Z,1011.92
2019-04-01T04:42:20.689Z,1011.93
2019-04-01T04:43:20.633Z,1011.91
2019-04-01T04:44:20.624Z,1011.93
2019-04-01T04:45:20.606Z,1011.93
2019-04-01T04:46:21.289Z,1011.97
2019-04-01T04:47:20.594Z,1011.96
2019-04-01T04:48:20.539Z,1011.97
2019-04-01T04:49:20.527Z,1011.95
2019-04-01T04:50:20.504Z,1011.95
2019-04-01T04:51:20.489Z,1011.92
2019-04-01T04:52:20.497Z,1011.93
2019-04-01T04:53:20.456Z,1011.92
2019-04-01T04:54:20.423Z,1011.95
2019-04-01T04:55:20.403Z,1011.95
2019-04-01T04:56:20.389Z,1011.96
2019-04-01T04:57:20.599Z,1011.98
2019-04-01T04:58:20.370Z,1011.99
2019-04-01T04:59:20.333Z,1011.98
2019-04-01T05:00:20.309Z,1012.01
2019-04-01T05:01:20.284Z,1012.00
2019-04-01T05:02:20.269Z,1011.98
2019-04-01T05:03:20.278Z,1011.97
2019-04-01T05:04:20.275Z,1012.01
2019-04-01T05:05:20.210Z,1012.04
2019-04-01T05:06:20.194Z,1012.07
2019-04-01T05:07:20.175Z,1012.06
2019-04-01T05:08:20.156Z,1012.07
2019-04-01T05:09:20.127Z,1012.09
2019-04-01T05:10:20.139Z,1012.11
2019-04-01T05:11:20.186Z,1012.13
2019-04-01T05:12:20.081Z,1012.09
2019-04-01T05:13:20.062Z,1012.08
2019-04-01T05:14:20.036Z,1012.08
2019-04-01T05:15:20.045Z,1012.10
2019-04-01T05:16:19.989Z,1012.13
2019-04-01T05:17:19.980Z,1012.14
2019-04-01T05:18:19.964Z,1012.17
2019-04-01T05:19:19.966Z,1012.15
2019-04-01T05:20:19.914Z,1012.18
2019-04-01T05:21:19.899Z,1012.17
2019-04-01T05:22:19.911Z,1012.15
2019-04-01T05:23:19.865Z,1012.18
2019-04-01T05:24:19.840Z,1012.16
2019-04-01T05:25:19.880Z,1012.18
2019-04-01T05:26:19.851Z,1012.16
2019-04-01T05:27:19.777Z,1012.18
2019-04-01T05:28:19.763Z,1012.20
2019-04-01T05:29:19.737Z,1012.18
2019-04-01T05:30:19.716Z,1012.21
2019-04-01T05:31:19.736Z,1012.24
2019-04-01T05:32:19.689Z,1012.26
2019-04-01T05:33:19.660Z,1012.24
2019-04-01T05:34:19.649Z,1012.22
2019-04-01T05:35:19.622Z,1012.25
2019-04-01T05:36:19.637Z,1012.28
2019-04-01T05:37:19.657Z,1012.24
2019-04-01T05:38:19.567Z,1012.30
2019-04-01T05:39:19.545Z,1012.28
2019-04-01T05:40:19.526Z,1012.31
2019-04-01T05:41:19.500Z,1012.29
2019-04-01T05:42:19.513Z,1012.35
2019-04-01T05:43:19.464Z,1012.35
2019-04-01T05:44:19.480Z,1012.33
2019-04-01T05:45:19.437Z,1012.39
2019-04-01T05:46:19.404Z,1012.38
2019-04-01T05:47:19.393Z,1012.42
2019-04-01T05:48:19.369Z,1012.38
2019-04-01T05:49:19.376Z,1012.37
2019-04-01T05:50:19.327Z,1012.38
2019-04-01T05:51:19.311Z,1012.41
2019-04-01T05:52:19.291Z,1012.41
2019-04-01T05:53:19.298Z,1012.42
2019-04-01T05:54:19.247Z,1012.43
2019-04-01T05:55:19.261Z,1012.42
2019-04-01T05:56:19.225Z,1012.43
2019-04-01T05:57:19.195Z,1012.45
2019-04-01T05:58:19.175Z,1012.44
2019-04-01T05:59:19.162Z,1012.48
2019-04-01T06:00:20.856Z,1012.49
2019-04-01T06:01:19.126Z,1012.49
2019-04-01T06:02:19.100Z,1012.54
2019-04-01T06:03:19.103Z,1012.50
2019-04-01T06:04:19.063Z,1012.48
2019-04-01T06:05:19.071Z,1012.49
2019-04-01T06:06:19.017Z,1012.44
2019-04-01T06:07:18.999Z,1012.45
2019-04-01T06:08:18.979Z,1012.45
2019-04-01T06:09:18.967Z,1012.50
2019-04-01T06:10:18.974Z,1012.48
2019-04-01T06:11:18.928Z,1012.52
2019-04-01T06:12:18.909Z,1012.50
2019-04-01T06:13:18.889Z,1012.52
2019-04-01T06:14:18.863Z,1012.54
2019-04-01T06:15:18.843Z,1012.54
2019-04-01T06:16:18.843Z,1012.52
2019-04-01T06:17:18.811Z,1012.49
2019-04-01T06:18:18.784Z,1012.48
2019-04-01T06:19:18.798Z,1012.50
2019-04-01T06:20:18.746Z,1012.50
2019-04-01T06:21:18.780Z,1012.55
2019-04-01T06:22:18.707Z,1012.52
2019-04-01T06:23:18.699Z,1012.52
2019-04-01T06:24:18.684Z,1012.56
2019-04-01T06:25:18.656Z,1012.56
2019-04-01T06:26:18.628Z,1012.57
2019-04-01T06:27:18.641Z,1012.58
2019-04-01T06:28:18.599Z,1012.59
2019-04-01T06:29:18.578Z,1012.57
2019-04-01T06:30:18.570Z,1012.58
2019-04-01T06:31:18.569Z,1012.61
2019-04-01T06:32:18.526Z,1012.60
2019-04-01T06:33:18.506Z,1012.60
2019-04-01T06:34:18.488Z,1012.62
2019-04-01T06:35:18.463Z,1012.61
2019-04-01T06:36:18.481Z,1012.61
2019-04-01T06:37:18.440Z,1012.63
2019-04-01T06:38:18.412Z,1012.62
2019-04-01T06:39:18.407Z,1012.67
2019-04-01T06:40:18.410Z,1012.65
2019-04-01T06:41:18.356Z,1012.64
2019-04-01T06:42:18.369Z,1012.62
2019-04-01T06:43:18.313Z,1012.63
2019-04-01T06:44:18.333Z,1012.64
2019-04-01T06:45:18.275Z,1012.64
2019-04-01T06:46:18.287Z,1012.67
2019-04-01T06:47:18.348Z,1012.65
2019-04-01T06:48:18.233Z,1012.62
2019-04-01T06:49:20.365Z,1012.62
2019-04-01T06:50:18.183Z,1012.63
2019-04-01T06:51:18.212Z,1012.60
2019-04-01T06:52:18.146Z,1012.64
2019-04-01T06:53:18.135Z,1012.59
2019-04-01T06:54:18.144Z,1012.64
2019-04-01T06:55:18.084Z,1012.62
2019-04-01T06:56:18.070Z,1012.58
2019-04-01T06:57:18.055Z,1012.58
2019-04-01T06:58:18.048Z,1012.61
2019-04-01T06:59:18.009Z,1012.59
2019-04-01T07:00:17.993Z,1012.61
2019-04-01T07:01:17.985Z,1012.61
2019-04-01T07:02:17.954Z,1012.63
2019-04-01T07:03:18.753Z,1012.59
2019-04-01T07:04:17.924Z,1012.61
2019-04-01T07:05:17.896Z,1012.63
2019-04-01T07:06:17.884Z,1012.60
2019-04-01T07:07:19.478Z,1012.59
2019-04-01T07:08:17.880Z,1012.60
2019-04-01T07:09:17.861Z,1012.59
2019-04-01T07:10:17.805Z,1012.59
2019-04-01T07:11:17.880Z,1012.55
2019-04-01T07:12:17.787Z,1012.57
2019-04-01T07:13:17.768Z,1012.57
2019-04-01T07:14:17.756Z,1012.57
2019-04-01T07:15:17.937Z,1012.50
2019-04-01T07:16:17.703Z,1012.55
2019-04-01T07:17:17.673Z,1012.55
2019-04-01T07:18:17.670Z,1012.56
2019-04-01T07:19:17.663Z,1012.53
2019-04-01T07:20:17.651Z,1012.57
2019-04-01T07:21:17.646Z,1012.58
2019-04-01T07:22:17.586Z,1012.54
2019-04-01T07:23:17.574Z,1012.56
2019-04-01T07:24:17.558Z,1012.55
2019-04-01T07:25:17.597Z,1012.56
2019-04-01T07:26:17.515Z,1012.51
2019-04-01T07:27:17.495Z,1012.58
2019-04-01T07:28:17.487Z,1012.51
2019-04-01T07:29:17.462Z,1012.55
2019-04-01T07:30:17.540Z,1012.51
2019-04-01T07:31:17.431Z,1012.55
2019-04-01T07:32:17.410Z,1012.52
2019-04-01T07:33:17.407Z,1012.51
2019-04-01T07:34:17.372Z,1012.53
2019-04-01T07:35:17.362Z,1012.54
2019-04-01T07:36:17.357Z,1012.55
2019-04-01T07:37:17.325Z,1012.58
2019-04-01T07:38:17.303Z,1012.54
2019-04-01T07:39:17.290Z,1012.55
2019-04-01T07:40:17.259Z,1012.51
2019-04-01T07:41:17.315Z,1012.55
2019-04-01T07:42:17.223Z,1012.56
2019-04-01T07:43:17.206Z,1012.54
2019-04-01T07:44:17.191Z,1012.55
2019-04-01T07:45:17.178Z,1012.58
2019-04-01T07:46:17.197Z,1012.54
2019-04-01T07:47:17.138Z,1012.54
2019-04-01T07:48:17.125Z,1012.54
2019-04-01T07:49:17.102Z,1012.51
2019-04-01T07:50:17.078Z,1012.57
2019-04-01T07:51:17.104Z,1012.54
2019-04-01T07:52:17.065Z,1012.55
2019-04-01T07:53:17.125Z,1012.53
2019-04-01T07:54:18.630Z,1012.58
2019-04-01T07:55:16.994Z,1012.59
2019-04-01T07:56:17.012Z,1012.54
2019-04-01T07:57:17.028Z,1012.53
2019-04-01T07:58:16.947Z,1012.55
2019-04-01T07:59:16.927Z,1012.55
2019-04-01T08:00:16.911Z,1012.53
2019-04-01T08:01:16.892Z,1012.56
2019-04-01T08:02:17.597Z,1012.59
2019-04-01T08:03:17.685Z,1012.59
2019-04-01T08:04:17.505Z,1012.58
2019-04-01T08:05:16.822Z,1012.58
2019-04-01T08:06:16.807Z,1012.63
2019-04-01T08:07:16.876Z,1012.62
2019-04-01T08:08:16.807Z,1012.62
2019-04-01T08:09:16.759Z,1012.62
2019-04-01T08:10:16.737Z,1012.62
2019-04-01T08:11:17.815Z,1012.57
2019-04-01T08:12:17.578Z,1012.58
2019-04-01T08:13:17.939Z,1012.58
2019-04-01T08:14:17.360Z,1012.59
2019-04-01T08:15:17.312Z,1012.64
2019-04-01T08:16:17.264Z,1012.62
2019-04-01T08:17:17.331Z,1012.58
2019-04-01T08:18:17.846Z,1012.57
2019-04-01T08:19:17.300Z,1012.59
2019-04-01T08:20:17.162Z,1012.62
2019-04-01T08:21:17.284Z,1012.61
2019-04-01T08:22:17.259Z,1012.55
2019-04-01T08:23:17.612Z,1012.57
2019-04-01T08:24:17.333Z,1012.58
2019-04-01T08:25:17.295Z,1012.59
2019-04-01T08:26:17.307Z,1012.54
2019-04-01T08:27:17.105Z,1012.48
2019-04-01T08:28:17.280Z,1012.51
2019-04-01T08:29:29.415Z,1012.52
2019-04-01T08:30:17.129Z,1012.55
2019-04-01T08:31:17.181Z,1012.50
2019-04-01T08:32:17.098Z,1012.49
2019-04-01T08:33:17.150Z,1012.47
2019-04-01T08:34:17.522Z,1012.45
2019-04-01T08:35:17.092Z,1012.45
2019-04-01T08:36:16.897Z,1012.44
2019-04-01T08:37:16.833Z,1012.42
2019-04-01T08:38:16.905Z,1012.41
2019-04-01T08:39:16.954Z,1012.39
2019-04-01T08:40:16.965Z,1012.38
2019-04-01T08:41:17.352Z,1012.39
2019-04-01T08:42:16.836Z,1012.34
2019-04-01T08:43:16.886Z,1012.35
2019-04-01T08:44:16.902Z,1012.39
2019-04-01T08:45:16.876Z,1012.37
2019-04-01T08:46:17.338Z,1012.33
2019-04-01T08:47:16.846Z,1012.36
2019-04-01T08:48:16.869Z,1012.37
2019-04-01T08:49:16.783Z,1012.38
2019-04-01T08:50:16.781Z,1012.43
2019-04-01T08:51:17.121Z,1012.42
2019-04-01T08:52:16.773Z,1012.43
2019-04-01T08:53:16.750Z,1012.39
2019-04-01T08:54:16.743Z,1012.32
2019-04-01T08:55:16.780Z,1012.32
2019-04-01T08:56:17.075Z,1012.31
2019-04-01T08:57:17.009Z,1012.32
2019-04-01T08:58:16.647Z,1012.31
2019-04-01T08:59:16.606Z,1012.32
2019-04-01T09:00:16.639Z,1012.29
2019-04-01T09:01:16.649Z,1012.32
2019-04-01T09:02:18.227Z,1012.31
2019-04-01T09:03:16.537Z,1012.27
2019-04-01T09:04:16.682Z,1012.25
2019-04-01T09:05:16.485Z,1012.25
2019-04-01T09:06:16.547Z,1012.24
2019-04-01T09:07:16.550Z,1012.26
2019-04-01T09:08:15.858Z,1012.29
2019-04-01T09:09:15.828Z,1012.28
2019-04-01T09:10:15.813Z,1012.25
2019-04-01T09:11:15.794Z,1012.25
2019-04-01T09:12:15.834Z,1012.29
2019-04-01T09:13:15.766Z,1012.32
2019-04-01T09:14:15.753Z,1012.31
2019-04-01T09:15:15.741Z,1012.25
2019-04-01T09:16:15.737Z,1012.25
2019-04-01T09:17:15.712Z,1012.23
2019-04-01T09:18:15.755Z,1012.21
2019-04-01T09:19:15.684Z,1012.22
2019-04-01T09:20:15.666Z,1012.28
2019-04-01T09:21:15.651Z,1012.31
2019-04-01T09:22:15.650Z,1012.26
2019-04-01T09:23:15.669Z,1012.31
2019-04-01T09:24:15.616Z,1012.27
2019-04-01T09:25:15.602Z,1012.26
2019-04-01T09:26:15.590Z,1012.27
2019-04-01T09:27:15.574Z,1012.22
2019-04-01T09:28:15.584Z,1012.23
2019-04-01T09:29:15.550Z,1012.15
2019-04-01T09:30:18.475Z,1012.16
2019-04-01T09:31:15.534Z,1012.14
2019-04-01T09:32:15.522Z,1012.15
2019-04-01T09:33:15.538Z,1012.21
2019-04-01T09:34:15.499Z,1012.16
2019-04-01T09:35:15.484Z,1012.16
2019-04-01T09:36:15.464Z,1012.13
2019-04-01T09:37:15.454Z,1012.16
2019-04-01T09:38:15.482Z,1012.11
2019-04-01T09:39:15.443Z,1012.16
2019-04-01T09:40:15.424Z,1012.15
2019-04-01T09:41:15.431Z,1012.10
2019-04-01T09:42:15.399Z,1012.13
2019-04-01T09:43:15.408Z,1012.08
2019-04-01T09:44:15.381Z,1012.06
2019-04-01T09:45:15.365Z,1012.05
2019-04-01T09:46:15.362Z,1012.02
2019-04-01T09:47:15.341Z,1012.00
2019-04-01T09:48:15.359Z,1011.97
2019-04-01T09:49:15.325Z,1011.96
2019-04-01T09:50:15.306Z,1011.95
2019-04-01T09:51:15.307Z,1011.98
2019-04-01T09:52:15.295Z,1011.98
2019-04-01T09:53:15.313Z,1012.01
2019-04-01T09:54:15.272Z,1011.97
2019-04-01T09:55:15.259Z,1011.88
2019-04-01T09:56:15.245Z,1011.87
2019-04-01T09:57:17.873Z,1011.89
2019-04-01T09:58:15.219Z,1011.85
2019-04-01T09:59:15.210Z,1011.81
2019-04-01T10:00:15.193Z,1011.88
2019-04-01T10:01:15.189Z,1011.82
2019-04-01T10:02:15.171Z,1011.80
2019-04-01T10:03:15.209Z,1011.79
2019-04-01T10:04:15.143Z,1011.79
2019-04-01T10:05:15.133Z,1011.73
2019-04-01T10:06:15.130Z,1011.67
2019-04-01T10:07:15.102Z,1011.60
2019-04-01T10:08:15.092Z,1011.57
2019-04-01T10:09:15.095Z,1011.55
2019-04-01T10:10:15.069Z,1011.59
2019-04-01T10:11:15.057Z,1011.60
2019-04-01T10:12:15.058Z,1011.62
2019-04-01T10:13:15.058Z,1011.56
2019-04-01T10:14:15.042Z,1011.53
2019-04-01T10:15:15.003Z,1011.53
2019-04-01T10:16:15.000Z,1011.48
2019-04-01T10:17:14.986Z,1011.47
2019-04-01T10:18:15.000Z,1011.45
2019-04-01T10:19:14.960Z,1011.42
2019-04-01T10:20:14.938Z,1011.40
2019-04-01T10:21:14.923Z,1011.45
2019-04-01T10:22:14.915Z,1011.34
2019-04-01T10:23:14.928Z,1011.37
2019-04-01T10:24:14.889Z,1011.36
2019-04-01T10:25:14.881Z,1011.35
2019-04-01T10:26:14.873Z,1011.31
2019-04-01T10:27:14.854Z,1011.35
2019-04-01T10:28:14.912Z,1011.37
2019-04-01T10:29:14.829Z,1011.44
2019-04-01T10:30:14.817Z,1011.34
2019-04-01T10:31:14.808Z,1011.33
2019-04-01T10:32:14.790Z,1011.27
2019-04-01T10:33:14.790Z,1011.31
2019-04-01T10:34:14.772Z,1011.46
2019-04-01T10:35:14.763Z,1011.30
2019-04-01T10:36:14.746Z,1011.29
2019-04-01T10:37:14.739Z,1011.25
2019-04-01T10:38:14.727Z,1011.23
2019-04-01T10:39:14.733Z,1011.22
2019-04-01T10:40:14.701Z,1011.25
2019-04-01T10:41:14.698Z,1011.19
2019-04-01T10:42:14.674Z,1011.23
2019-04-01T10:43:14.673Z,1011.30
2019-04-01T10:44:14.668Z,1011.35
2019-04-01T10:45:14.659Z,1011.32
2019-04-01T10:46:14.630Z,1011.20
2019-04-01T10:47:14.632Z,1011.05
2019-04-01T10:48:14.688Z,1011.03
2019-04-01T10:49:14.620Z,1011.04
2019-04-01T10:50:14.791Z,1010.97
2019-04-01T10:51:14.588Z,1011.00
2019-04-01T10:52:14.638Z,1010.94
2019-04-01T10:53:14.620Z,1010.97
2019-04-01T10:54:14.643Z,1010.99
2019-04-01T10:55:14.589Z,1011.00
2019-04-01T10:56:14.535Z,1010.88
2019-04-01T10:57:14.572Z,1010.86
2019-04-01T10:58:14.523Z,1010.84
2019-04-01T10:59:14.525Z,1010.79
2019-04-01T11:00:14.603Z,1010.89
2019-04-01T11:01:14.513Z,1010.99
2019-04-01T11:02:18.201Z,1010.86
2019-04-01T11:03:14.472Z,1010.79
2019-04-01T11:04:14.460Z,1010.97
2019-04-01T11:05:14.492Z,1011.03
2019-04-01T11:06:14.442Z,1011.10
2019-04-01T11:07:14.444Z,1011.13
2019-04-01T11:08:14.410Z,1011.00
2019-04-01T11:09:14.412Z,1011.05
2019-04-01T11:10:14.429Z,1011.07
2019-04-01T11:11:14.379Z,1011.03
2019-04-01T11:12:14.393Z,1011.07
2019-04-01T11:13:14.351Z,1011.10
2019-04-01T11:14:14.358Z,1011.11
2019-04-01T11:15:15.793Z,1011.06
2019-04-01T11:16:14.328Z,1010.95
2019-04-01T11:17:15.271Z,1010.83
2019-04-01T11:18:14.307Z,1010.84
2019-04-01T11:19:14.304Z,1010.72
2019-04-01T11:20:14.291Z,1010.82
2019-04-01T11:21:14.281Z,1010.82
2019-04-01T11:22:14.279Z,1010.82
2019-04-01T11:23:14.267Z,1010.79
2019-04-01T11:24:14.257Z,1010.84
2019-04-01T11:25:14.258Z,1010.90
2019-04-01T11:26:14.266Z,1010.93
2019-04-01T11:27:14.214Z,1010.82
2019-04-01T11:28:14.212Z,1010.68
2019-04-01T11:29:14.195Z,1010.69
2019-04-01T11:30:14.325Z,1010.73
2019-04-01T11:31:14.251Z,1010.72
2019-04-01T11:32:14.206Z,1010.68
2019-04-01T11:33:14.198Z,1010.70
2019-04-01T11:34:14.169Z,1010.75
2019-04-01T11:35:14.218Z,1010.73
2019-04-01T11:36:14.301Z,1010.79
2019-04-01T11:37:14.138Z,1010.87
2019-04-01T11:38:14.142Z,1010.72
2019-04-01T11:39:14.168Z,1010.62
2019-04-01T11:40:14.167Z,1010.71
2019-04-01T11:41:14.097Z,1010.69
2019-04-01T11:42:14.261Z,1010.59
2019-04-01T11:43:14.071Z,1010.65
2019-04-01T11:44:14.116Z,1010.74
2019-04-01T11:45:14.139Z,1010.64
2019-04-01T11:46:14.086Z,1010.64
2019-04-01T11:47:14.066Z,1010.69
2019-04-01T11:48:14.067Z,1010.65
2019-04-01T11:49:14.002Z,1010.58
2019-04-01T11:50:13.995Z,1010.56
2019-04-01T11:51:14.029Z,1010.60
2019-04-01T11:52:15.686Z,1010.65
2019-04-01T11:53:13.955Z,1010.69
2019-04-01T11:54:13.948Z,1010.80
2019-04-01T11:55:13.937Z,1010.98
2019-04-01T11:56:13.931Z,1010.99
2019-04-01T11:57:13.911Z,1010.96
2019-04-01T11:58:13.961Z,1010.99
2019-04-01T11:59:13.894Z,1010.95
2019-04-01T12:00:13.889Z,1010.75
2019-04-01T12:01:13.878Z,1010.77
2019-04-01T12:02:13.891Z,1010.80
2019-04-01T12:03:13.859Z,1010.94
2019-04-01T12:04:13.850Z,1010.86
2019-04-01T12:05:13.828Z,1010.91